sensor_id;sensor_type;location;lat;lon;timestamp;P1;durP1;ratioP1;P2;durP2;ratioP2
46282;SDS011;32017;43.700;11.820;2023-04-23T00:02:09;3.50;;;3.30;;
46282;SDS011;32017;43.700;11.820;2023-04-23T00:04:32;3.95;;;3.78;;
46282;SDS011;32017;43.700;11.820;2023-04-23T00:09:15;3.65;;;3.55;;
46282;SDS011;32017;43.700;11.820;2023-04-23T00:11:36;4.63;;;4.43;;
46282;SDS011;32017;43.700;11.820;2023-04-23T00:13:56;2.80;;;2.72;;
46282;SDS011;32017;43.700;11.820;2023-04-23T00:16:17;3.42;;;3.22;;
46282;SDS011;32017;43.700;11.820;2023-04-23T00:18:38;3.90;;;3.60;;
46282;SDS011;32017;43.700;11.820;2023-04-23T00:20:58;3.95;;;3.38;;
46282;SDS011;32017;43.700;11.820;2023-04-23T00:23:19;3.75;;;3.55;;
46282;SDS011;32017;43.700;11.820;2023-04-23T00:25:39;3.97;;;3.88;;
46282;SDS011;32017;43.700;11.820;2023-04-23T00:27:59;4.45;;;4.25;;
46282;SDS011;32017;43.700;11.820;2023-04-23T00:30:19;3.72;;;3.53;;
46282;SDS011;32017;43.700;11.820;2023-04-23T00:32:39;3.70;;;3.40;;
46282;SDS011;32017;43.700;11.820;2023-04-23T00:35:00;4.63;;;4.30;;
46282;SDS011;32017;43.700;11.820;2023-04-23T00:37:21;5.13;;;4.75;;
46282;SDS011;32017;43.700;11.820;2023-04-23T00:39:41;4.85;;;4.55;;
46282;SDS011;32017;43.700;11.820;2023-04-23T00:42:01;4.75;;;4.47;;
46282;SDS011;32017;43.700;11.820;2023-04-23T00:44:28;5.35;;;5.15;;
46282;SDS011;32017;43.700;11.820;2023-04-23T00:46:49;3.83;;;3.72;;
46282;SDS011;32017;43.700;11.820;2023-04-23T00:49:10;4.18;;;3.85;;
46282;SDS011;32017;43.700;11.820;2023-04-23T00:51:31;4.25;;;4.03;;
46282;SDS011;32017;43.700;11.820;2023-04-23T00:53:51;4.15;;;3.95;;
46282;SDS011;32017;43.700;11.820;2023-04-23T00:56:11;5.25;;;4.50;;
46282;SDS011;32017;43.700;11.820;2023-04-23T00:58:32;4.03;;;3.83;;
46282;SDS011;32017;43.700;11.820;2023-04-23T01:00:52;3.83;;;3.72;;
46282;SDS011;32017;43.700;11.820;2023-04-23T01:03:12;4.25;;;4.10;;
46282;SDS011;32017;43.700;11.820;2023-04-23T01:05:33;5.03;;;4.85;;
46282;SDS011;32017;43.700;11.820;2023-04-23T01:07:53;4.82;;;4.63;;
46282;SDS011;32017;43.700;11.820;2023-04-23T01:10:14;4.20;;;4.00;;
46282;SDS011;32017;43.700;11.820;2023-04-23T01:12:34;4.20;;;4.10;;
46282;SDS011;32017;43.700;11.820;2023-04-23T01:14:55;4.43;;;4.22;;
46282;SDS011;32017;43.700;11.820;2023-04-23T01:17:15;3.70;;;3.60;;
46282;SDS011;32017;43.700;11.820;2023-04-23T01:19:35;4.75;;;4.65;;
46282;SDS011;32017;43.700;11.820;2023-04-23T01:21:55;3.13;;;3.13;;
46282;SDS011;32017;43.700;11.820;2023-04-23T01:24:19;4.18;;;4.13;;
46282;SDS011;32017;43.700;11.820;2023-04-23T01:26:39;4.72;;;4.53;;
46282;SDS011;32017;43.700;11.820;2023-04-23T01:29:00;6.18;;;4.57;;
46282;SDS011;32017;43.700;11.820;2023-04-23T01:31:20;3.83;;;3.72;;
46282;SDS011;32017;43.700;11.820;2023-04-23T01:33:42;4.25;;;4.15;;
46282;SDS011;32017;43.700;11.820;2023-04-23T01:36:02;4.80;;;4.57;;
46282;SDS011;32017;43.700;11.820;2023-04-23T01:38:23;3.45;;;3.35;;
46282;SDS011;32017;43.700;11.820;2023-04-23T01:40:44;4.45;;;4.35;;
46282;SDS011;32017;43.700;11.820;2023-04-23T01:43:06;4.55;;;4.45;;
46282;SDS011;32017;43.700;11.820;2023-04-23T01:45:27;5.03;;;4.63;;
46282;SDS011;32017;43.700;11.820;2023-04-23T01:47:47;5.15;;;4.70;;
46282;SDS011;32017;43.700;11.820;2023-04-23T01:50:08;4.95;;;4.85;;
46282;SDS011;32017;43.700;11.820;2023-04-23T01:52:28;4.15;;;4.05;;
46282;SDS011;32017;43.700;11.820;2023-04-23T01:54:49;3.95;;;3.78;;
46282;SDS011;32017;43.700;11.820;2023-04-23T01:57:09;5.22;;;5.03;;
46282;SDS011;32017;43.700;11.820;2023-04-23T01:59:30;3.97;;;3.88;;
46282;SDS011;32017;43.700;11.820;2023-04-23T02:01:50;4.40;;;4.20;;
46282;SDS011;32017;43.700;11.820;2023-04-23T02:04:11;5.55;;;5.38;;
46282;SDS011;32017;43.700;11.820;2023-04-23T02:06:32;4.75;;;4.65;;
46282;SDS011;32017;43.700;11.820;2023-04-23T02:08:52;4.75;;;4.65;;
46282;SDS011;32017;43.700;11.820;2023-04-23T02:11:12;4.18;;;4.00;;
46282;SDS011;32017;43.700;11.820;2023-04-23T02:13:32;4.97;;;4.88;;
46282;SDS011;32017;43.700;11.820;2023-04-23T02:15:52;4.63;;;4.43;;
46282;SDS011;32017;43.700;11.820;2023-04-23T02:18:13;4.40;;;4.20;;
46282;SDS011;32017;43.700;11.820;2023-04-23T02:20:33;4.95;;;4.85;;
46282;SDS011;32017;43.700;11.820;2023-04-23T02:22:56;4.32;;;4.13;;
46282;SDS011;32017;43.700;11.820;2023-04-23T02:25:17;4.72;;;4.63;;
46282;SDS011;32017;43.700;11.820;2023-04-23T02:27:40;4.35;;;4.25;;
46282;SDS011;32017;43.700;11.820;2023-04-23T02:30:00;4.13;;;4.03;;
46282;SDS011;32017;43.700;11.820;2023-04-23T02:32:20;4.65;;;4.55;;
46282;SDS011;32017;43.700;11.820;2023-04-23T02:34:41;3.60;;;3.40;;
46282;SDS011;32017;43.700;11.820;2023-04-23T02:37:02;4.55;;;4.45;;
46282;SDS011;32017;43.700;11.820;2023-04-23T02:39:25;3.97;;;3.88;;
46282;SDS011;32017;43.700;11.820;2023-04-23T02:41:45;4.38;;;4.28;;
46282;SDS011;32017;43.700;11.820;2023-04-23T02:44:05;4.05;;;3.95;;
46282;SDS011;32017;43.700;11.820;2023-04-23T02:46:25;4.28;;;4.00;;
46282;SDS011;32017;43.700;11.820;2023-04-23T02:48:45;4.50;;;4.40;;
46282;SDS011;32017;43.700;11.820;2023-04-23T02:51:07;3.88;;;3.78;;
46282;SDS011;32017;43.700;11.820;2023-04-23T02:53:27;4.35;;;4.22;;
46282;SDS011;32017;43.700;11.820;2023-04-23T02:55:47;3.80;;;3.70;;
46282;SDS011;32017;43.700;11.820;2023-04-23T02:58:08;4.35;;;4.25;;
46282;SDS011;32017;43.700;11.820;2023-04-23T03:00:28;4.35;;;4.25;;
46282;SDS011;32017;43.700;11.820;2023-04-23T03:02:49;4.30;;;4.10;;
46282;SDS011;32017;43.700;11.820;2023-04-23T03:05:10;4.22;;;4.03;;
46282;SDS011;32017;43.700;11.820;2023-04-23T03:07:31;3.78;;;3.67;;
46282;SDS011;32017;43.700;11.820;2023-04-23T03:09:51;4.00;;;3.90;;
46282;SDS011;32017;43.700;11.820;2023-04-23T03:12:11;4.15;;;4.05;;
46282;SDS011;32017;43.700;11.820;2023-04-23T03:14:31;4.50;;;4.50;;
46282;SDS011;32017;43.700;11.820;2023-04-23T03:16:51;5.05;;;4.75;;
46282;SDS011;32017;43.700;11.820;2023-04-23T03:19:12;7.93;;;7.43;;
46282;SDS011;32017;43.700;11.820;2023-04-23T03:21:32;5.55;;;5.35;;
46282;SDS011;32017;43.700;11.820;2023-04-23T03:23:52;4.95;;;4.85;;
46282;SDS011;32017;43.700;11.820;2023-04-23T03:26:13;3.95;;;3.95;;
46282;SDS011;32017;43.700;11.820;2023-04-23T03:28:33;5.65;;;5.25;;
46282;SDS011;32017;43.700;11.820;2023-04-23T03:30:53;4.50;;;4.40;;
46282;SDS011;32017;43.700;11.820;2023-04-23T03:33:14;4.72;;;4.63;;
46282;SDS011;32017;43.700;11.820;2023-04-23T03:35:34;5.63;;;5.53;;
46282;SDS011;32017;43.700;11.820;2023-04-23T03:37:54;4.90;;;4.80;;
46282;SDS011;32017;43.700;11.820;2023-04-23T03:40:14;4.75;;;4.63;;
46282;SDS011;32017;43.700;11.820;2023-04-23T03:42:35;5.35;;;5.25;;
46282;SDS011;32017;43.700;11.820;2023-04-23T03:44:55;5.40;;;5.15;;
46282;SDS011;32017;43.700;11.820;2023-04-23T03:47:16;5.20;;;5.10;;
46282;SDS011;32017;43.700;11.820;2023-04-23T03:49:36;5.28;;;5.10;;
46282;SDS011;32017;43.700;11.820;2023-04-23T03:51:56;5.85;;;5.68;;
46282;SDS011;32017;43.700;11.820;2023-04-23T03:54:16;4.93;;;4.82;;
46282;SDS011;32017;43.700;11.820;2023-04-23T03:56:37;5.57;;;5.47;;
46282;SDS011;32017;43.700;11.820;2023-04-23T03:58:58;5.05;;;4.93;;
46282;SDS011;32017;43.700;11.820;2023-04-23T04:01:18;5.78;;;5.68;;
46282;SDS011;32017;43.700;11.820;2023-04-23T04:03:38;5.28;;;5.18;;
46282;SDS011;32017;43.700;11.820;2023-04-23T04:05:58;4.78;;;4.68;;
46282;SDS011;32017;43.700;11.820;2023-04-23T04:08:19;5.13;;;5.03;;
46282;SDS011;32017;43.700;11.820;2023-04-23T04:10:40;4.65;;;4.55;;
46282;SDS011;32017;43.700;11.820;2023-04-23T04:13:00;5.63;;;5.35;;
46282;SDS011;32017;43.700;11.820;2023-04-23T04:15:20;5.97;;;5.88;;
46282;SDS011;32017;43.700;11.820;2023-04-23T04:17:41;6.22;;;5.72;;
46282;SDS011;32017;43.700;11.820;2023-04-23T04:20:04;7.13;;;6.93;;
46282;SDS011;32017;43.700;11.820;2023-04-23T04:22:26;5.40;;;5.30;;
46282;SDS011;32017;43.700;11.820;2023-04-23T04:24:46;4.78;;;4.68;;
46282;SDS011;32017;43.700;11.820;2023-04-23T04:27:06;4.30;;;4.10;;
46282;SDS011;32017;43.700;11.820;2023-04-23T04:29:27;4.25;;;3.97;;
46282;SDS011;32017;43.700;11.820;2023-04-23T04:31:49;4.43;;;4.32;;
46282;SDS011;32017;43.700;11.820;2023-04-23T04:34:10;4.75;;;4.65;;
46282;SDS011;32017;43.700;11.820;2023-04-23T04:36:33;4.57;;;4.47;;
46282;SDS011;32017;43.700;11.820;2023-04-23T04:38:54;5.07;;;4.97;;
46282;SDS011;32017;43.700;11.820;2023-04-23T04:41:16;5.10;;;5.00;;
46282;SDS011;32017;43.700;11.820;2023-04-23T04:43:39;4.18;;;4.07;;
46282;SDS011;32017;43.700;11.820;2023-04-23T04:45:59;4.32;;;4.22;;
46282;SDS011;32017;43.700;11.820;2023-04-23T04:48:20;4.72;;;4.63;;
46282;SDS011;32017;43.700;11.820;2023-04-23T04:50:40;5.47;;;5.28;;
46282;SDS011;32017;43.700;11.820;2023-04-23T04:53:00;4.30;;;4.20;;
46282;SDS011;32017;43.700;11.820;2023-04-23T04:55:21;4.30;;;4.20;;
46282;SDS011;32017;43.700;11.820;2023-04-23T04:57:41;4.60;;;4.30;;
46282;SDS011;32017;43.700;11.820;2023-04-23T05:00:07;4.53;;;4.43;;
46282;SDS011;32017;43.700;11.820;2023-04-23T05:02:38;5.47;;;5.18;;
46282;SDS011;32017;43.700;11.820;2023-04-23T05:04:58;5.43;;;5.22;;
46282;SDS011;32017;43.700;11.820;2023-04-23T05:07:19;4.25;;;4.15;;
46282;SDS011;32017;43.700;11.820;2023-04-23T05:09:39;5.03;;;4.93;;
46282;SDS011;32017;43.700;11.820;2023-04-23T05:12:03;5.05;;;4.68;;
46282;SDS011;32017;43.700;11.820;2023-04-23T05:14:25;5.15;;;4.95;;
46282;SDS011;32017;43.700;11.820;2023-04-23T05:16:45;4.78;;;4.68;;
46282;SDS011;32017;43.700;11.820;2023-04-23T05:19:05;4.65;;;4.45;;
46282;SDS011;32017;43.700;11.820;2023-04-23T05:21:26;4.68;;;4.55;;
46282;SDS011;32017;43.700;11.820;2023-04-23T05:23:46;5.57;;;5.38;;
46282;SDS011;32017;43.700;11.820;2023-04-23T05:26:07;5.70;;;5.60;;
46282;SDS011;32017;43.700;11.820;2023-04-23T05:28:28;5.95;;;5.70;;
46282;SDS011;32017;43.700;11.820;2023-04-23T05:30:48;3.88;;;3.78;;
46282;SDS011;32017;43.700;11.820;2023-04-23T05:33:09;5.85;;;5.75;;
46282;SDS011;32017;43.700;11.820;2023-04-23T05:35:30;4.40;;;4.30;;
46282;SDS011;32017;43.700;11.820;2023-04-23T05:37:51;5.30;;;5.20;;
46282;SDS011;32017;43.700;11.820;2023-04-23T05:40:11;5.20;;;5.10;;
46282;SDS011;32017;43.700;11.820;2023-04-23T05:42:31;5.38;;;5.25;;
46282;SDS011;32017;43.700;11.820;2023-04-23T05:44:51;6.50;;;6.22;;
46282;SDS011;32017;43.700;11.820;2023-04-23T05:47:12;4.75;;;4.65;;
46282;SDS011;32017;43.700;11.820;2023-04-23T05:49:32;4.95;;;4.85;;
46282;SDS011;32017;43.700;11.820;2023-04-23T05:51:53;4.97;;;4.15;;
46282;SDS011;32017;43.700;11.820;2023-04-23T05:54:13;5.20;;;4.90;;
46282;SDS011;32017;43.700;11.820;2023-04-23T05:56:33;4.70;;;4.60;;
46282;SDS011;32017;43.700;11.820;2023-04-23T05:58:53;5.57;;;5.47;;
46282;SDS011;32017;43.700;11.820;2023-04-23T06:01:14;5.65;;;5.32;;
46282;SDS011;32017;43.700;11.820;2023-04-23T06:03:34;4.80;;;4.70;;
46282;SDS011;32017;43.700;11.820;2023-04-23T06:05:55;5.38;;;5.28;;
46282;SDS011;32017;43.700;11.820;2023-04-23T06:08:16;5.45;;;5.10;;
46282;SDS011;32017;43.700;11.820;2023-04-23T06:10:38;5.90;;;5.37;;
46282;SDS011;32017;43.700;11.820;2023-04-23T06:12:58;47.88;;;7.93;;
46282;SDS011;32017;43.700;11.820;2023-04-23T06:15:19;4.68;;;4.30;;
46282;SDS011;32017;43.700;11.820;2023-04-23T06:17:39;5.47;;;4.53;;
46282;SDS011;32017;43.700;11.820;2023-04-23T06:19:59;60.70;;;15.35;;
46282;SDS011;32017;43.700;11.820;2023-04-23T06:22:19;4.72;;;4.40;;
46282;SDS011;32017;43.700;11.820;2023-04-23T06:24:40;5.13;;;5.03;;
46282;SDS011;32017;43.700;11.820;2023-04-23T06:27:00;5.10;;;5.00;;
46282;SDS011;32017;43.700;11.820;2023-04-23T06:29:20;41.85;;;12.48;;
46282;SDS011;32017;43.700;11.820;2023-04-23T06:31:41;7.20;;;6.80;;
46282;SDS011;32017;43.700;11.820;2023-04-23T06:34:01;6.30;;;6.13;;
46282;SDS011;32017;43.700;11.820;2023-04-23T06:36:22;6.93;;;6.40;;
46282;SDS011;32017;43.700;11.820;2023-04-23T06:38:42;7.30;;;6.95;;
46282;SDS011;32017;43.700;11.820;2023-04-23T06:41:03;6.55;;;6.35;;
46282;SDS011;32017;43.700;11.820;2023-04-23T06:43:23;6.10;;;5.88;;
46282;SDS011;32017;43.700;11.820;2023-04-23T06:45:44;6.05;;;5.85;;
46282;SDS011;32017;43.700;11.820;2023-04-23T06:48:05;5.65;;;5.45;;
46282;SDS011;32017;43.700;11.820;2023-04-23T06:50:26;6.18;;;5.85;;
46282;SDS011;32017;43.700;11.820;2023-04-23T06:52:46;5.95;;;5.65;;
46282;SDS011;32017;43.700;11.820;2023-04-23T06:55:06;6.25;;;5.90;;
46282;SDS011;32017;43.700;11.820;2023-04-23T06:57:27;7.93;;;4.80;;
46282;SDS011;32017;43.700;11.820;2023-04-23T06:59:48;6.82;;;6.20;;
46282;SDS011;32017;43.700;11.820;2023-04-23T07:02:08;28.13;;;10.27;;
46282;SDS011;32017;43.700;11.820;2023-04-23T07:04:28;5.03;;;4.80;;
46282;SDS011;32017;43.700;11.820;2023-04-23T07:06:49;4.63;;;4.43;;
46282;SDS011;32017;43.700;11.820;2023-04-23T07:09:10;4.60;;;4.50;;
46282;SDS011;32017;43.700;11.820;2023-04-23T07:11:30;4.72;;;4.57;;
46282;SDS011;32017;43.700;11.820;2023-04-23T07:13:52;3.90;;;3.80;;
46282;SDS011;32017;43.700;11.820;2023-04-23T07:16:13;4.22;;;3.92;;
46282;SDS011;32017;43.700;11.820;2023-04-23T07:18:33;4.78;;;4.45;;
46282;SDS011;32017;43.700;11.820;2023-04-23T07:20:53;3.92;;;3.83;;
46282;SDS011;32017;43.700;11.820;2023-04-23T07:23:14;4.43;;;4.32;;
46282;SDS011;32017;43.700;11.820;2023-04-23T07:25:34;3.58;;;3.45;;
46282;SDS011;32017;43.700;11.820;2023-04-23T07:27:54;4.35;;;4.05;;
46282;SDS011;32017;43.700;11.820;2023-04-23T07:30:14;4.03;;;3.67;;
46282;SDS011;32017;43.700;11.820;2023-04-23T07:32:35;4.10;;;4.00;;
46282;SDS011;32017;43.700;11.820;2023-04-23T07:34:55;3.80;;;3.60;;
46282;SDS011;32017;43.700;11.820;2023-04-23T07:37:15;3.95;;;3.75;;
46282;SDS011;32017;43.700;11.820;2023-04-23T07:39:36;3.97;;;3.85;;
46282;SDS011;32017;43.700;11.820;2023-04-23T07:41:56;4.20;;;4.10;;
46282;SDS011;32017;43.700;11.820;2023-04-23T07:44:17;2.90;;;2.90;;
46282;SDS011;32017;43.700;11.820;2023-04-23T07:46:37;3.45;;;3.25;;
46282;SDS011;32017;43.700;11.820;2023-04-23T07:48:57;3.60;;;3.50;;
46282;SDS011;32017;43.700;11.820;2023-04-23T07:51:18;3.38;;;3.38;;
46282;SDS011;32017;43.700;11.820;2023-04-23T07:53:40;3.73;;;3.40;;
46282;SDS011;32017;43.700;11.820;2023-04-23T07:56:01;3.60;;;3.50;;
46282;SDS011;32017;43.700;11.820;2023-04-23T07:58:21;3.25;;;3.15;;
46282;SDS011;32017;43.700;11.820;2023-04-23T08:00:41;3.28;;;3.17;;
46282;SDS011;32017;43.700;11.820;2023-04-23T08:03:02;4.68;;;4.32;;
46282;SDS011;32017;43.700;11.820;2023-04-23T08:05:23;4.00;;;3.90;;
46282;SDS011;32017;43.700;11.820;2023-04-23T08:07:44;3.50;;;3.40;;
46282;SDS011;32017;43.700;11.820;2023-04-23T08:10:05;4.07;;;3.88;;
46282;SDS011;32017;43.700;11.820;2023-04-23T08:12:25;3.40;;;3.40;;
46282;SDS011;32017;43.700;11.820;2023-04-23T08:14:46;3.15;;;3.10;;
46282;SDS011;32017;43.700;11.820;2023-04-23T08:17:06;4.57;;;4.38;;
46282;SDS011;32017;43.700;11.820;2023-04-23T08:19:27;3.30;;;3.20;;
46282;SDS011;32017;43.700;11.820;2023-04-23T08:21:50;3.80;;;3.50;;
46282;SDS011;32017;43.700;11.820;2023-04-23T08:24:11;3.42;;;3.33;;
46282;SDS011;32017;43.700;11.820;2023-04-23T08:26:31;3.55;;;3.45;;
46282;SDS011;32017;43.700;11.820;2023-04-23T08:28:51;3.08;;;2.97;;
46282;SDS011;32017;43.700;11.820;2023-04-23T08:31:12;3.42;;;3.22;;
46282;SDS011;32017;43.700;11.820;2023-04-23T08:33:45;2.20;;;2.10;;
46282;SDS011;32017;43.700;11.820;2023-04-23T08:36:06;2.97;;;2.88;;
46282;SDS011;32017;43.700;11.820;2023-04-23T08:38:26;3.30;;;3.20;;
46282;SDS011;32017;43.700;11.820;2023-04-23T08:40:46;3.53;;;2.60;;
46282;SDS011;32017;43.700;11.820;2023-04-23T08:43:18;2.53;;;2.42;;
46282;SDS011;32017;43.700;11.820;2023-04-23T08:45:39;3.17;;;2.97;;
46282;SDS011;32017;43.700;11.820;2023-04-23T08:48:02;3.22;;;2.50;;
46282;SDS011;32017;43.700;11.820;2023-04-23T08:50:23;3.28;;;2.97;;
46282;SDS011;32017;43.700;11.820;2023-04-23T08:53:03;2.30;;;2.10;;
46282;SDS011;32017;43.700;11.820;2023-04-23T08:55:24;1.92;;;1.83;;
46282;SDS011;32017;43.700;11.820;2023-04-23T08:57:45;2.20;;;2.20;;
46282;SDS011;32017;43.700;11.820;2023-04-23T09:00:09;2.05;;;1.88;;
46282;SDS011;32017;43.700;11.820;2023-04-23T09:02:29;2.40;;;1.70;;
46282;SDS011;32017;43.700;11.820;2023-04-23T09:04:50;2.05;;;1.95;;
46282;SDS011;32017;43.700;11.820;2023-04-23T09:07:15;2.33;;;2.10;;
46282;SDS011;32017;43.700;11.820;2023-04-23T09:09:36;1.85;;;1.85;;
46282;SDS011;32017;43.700;11.820;2023-04-23T09:12:00;1.52;;;1.35;;
46282;SDS011;32017;43.700;11.820;2023-04-23T09:14:21;1.70;;;1.67;;
46282;SDS011;32017;43.700;11.820;2023-04-23T09:16:43;25.08;;;2.72;;
46282;SDS011;32017;43.700;11.820;2023-04-23T09:19:03;6.53;;;1.98;;
46282;SDS011;32017;43.700;11.820;2023-04-23T09:21:23;3.47;;;1.33;;
46282;SDS011;32017;43.700;11.820;2023-04-23T09:23:43;1.77;;;1.48;;
46282;SDS011;32017;43.700;11.820;2023-04-23T09:26:07;1.27;;;1.20;;
46282;SDS011;32017;43.700;11.820;2023-04-23T09:28:34;1.20;;;1.20;;
46282;SDS011;32017;43.700;11.820;2023-04-23T09:30:54;1.17;;;1.10;;
46282;SDS011;32017;43.700;11.820;2023-04-23T09:33:15;1.52;;;1.30;;
46282;SDS011;32017;43.700;11.820;2023-04-23T09:35:36;1.70;;;1.60;;
46282;SDS011;32017;43.700;11.820;2023-04-23T09:37:59;2.00;;;1.90;;
46282;SDS011;32017;43.700;11.820;2023-04-23T09:40:24;1.00;;;1.00;;
46282;SDS011;32017;43.700;11.820;2023-04-23T09:42:46;1.00;;;1.00;;
46282;SDS011;32017;43.700;11.820;2023-04-23T09:45:10;1.00;;;1.00;;
46282;SDS011;32017;43.700;11.820;2023-04-23T09:47:31;0.90;;;0.90;;
46282;SDS011;32017;43.700;11.820;2023-04-23T09:49:52;2.10;;;1.42;;
46282;SDS011;32017;43.700;11.820;2023-04-23T09:52:12;2.05;;;1.17;;
46282;SDS011;32017;43.700;11.820;2023-04-23T09:54:32;1.10;;;1.10;;
46282;SDS011;32017;43.700;11.820;2023-04-23T09:56:53;2.75;;;1.20;;
46282;SDS011;32017;43.700;11.820;2023-04-23T09:59:25;1.13;;;1.13;;
46282;SDS011;32017;43.700;11.820;2023-04-23T10:02:05;1.40;;;1.40;;
46282;SDS011;32017;43.700;11.820;2023-04-23T10:04:26;1.13;;;1.13;;
46282;SDS011;32017;43.700;11.820;2023-04-23T10:06:53;1.95;;;1.10;;
46282;SDS011;32017;43.700;11.820;2023-04-23T10:09:36;1.30;;;1.30;;
46282;SDS011;32017;43.700;11.820;2023-04-23T10:11:57;1.30;;;1.17;;
46282;SDS011;32017;43.700;11.820;2023-04-23T10:14:18;1.85;;;1.10;;
46282;SDS011;32017;43.700;11.820;2023-04-23T10:16:40;2.28;;;0.90;;
46282;SDS011;32017;43.700;11.820;2023-04-23T10:19:08;1.00;;;1.00;;
46282;SDS011;32017;43.700;11.820;2023-04-23T10:21:29;1.00;;;1.00;;
46282;SDS011;32017;43.700;11.820;2023-04-23T10:24:11;0.90;;;0.90;;
46282;SDS011;32017;43.700;11.820;2023-04-23T10:26:32;1.00;;;1.00;;
46282;SDS011;32017;43.700;11.820;2023-04-23T10:28:54;0.90;;;0.90;;
46282;SDS011;32017;43.700;11.820;2023-04-23T10:31:16;0.90;;;0.90;;
46282;SDS011;32017;43.700;11.820;2023-04-23T10:33:37;1.02;;;0.90;;
46282;SDS011;32017;43.700;11.820;2023-04-23T10:36:14;1.70;;;0.93;;
46282;SDS011;32017;43.700;11.820;2023-04-23T10:38:35;0.90;;;0.90;;
46282;SDS011;32017;43.700;11.820;2023-04-23T10:41:14;0.90;;;0.90;;
46282;SDS011;32017;43.700;11.820;2023-04-23T10:43:39;1.00;;;1.00;;
46282;SDS011;32017;43.700;11.820;2023-04-23T10:45:59;0.90;;;0.90;;
46282;SDS011;32017;43.700;11.820;2023-04-23T10:48:20;1.00;;;1.00;;
46282;SDS011;32017;43.700;11.820;2023-04-23T10:50:40;1.00;;;1.00;;
46282;SDS011;32017;43.700;11.820;2023-04-23T10:53:22;1.20;;;1.20;;
46282;SDS011;32017;43.700;11.820;2023-04-23T10:55:43;1.48;;;1.10;;
46282;SDS011;32017;43.700;11.820;2023-04-23T10:58:04;1.50;;;1.40;;
46282;SDS011;32017;43.700;11.820;2023-04-23T11:00:26;1.15;;;1.00;;
46282;SDS011;32017;43.700;11.820;2023-04-23T11:02:47;1.00;;;1.00;;
46282;SDS011;32017;43.700;11.820;2023-04-23T11:05:10;3.13;;;1.00;;
46282;SDS011;32017;43.700;11.820;2023-04-23T11:07:31;0.90;;;0.90;;
46282;SDS011;32017;43.700;11.820;2023-04-23T11:09:51;0.95;;;0.95;;
46282;SDS011;32017;43.700;11.820;2023-04-23T11:12:13;1.00;;;1.00;;
46282;SDS011;32017;43.700;11.820;2023-04-23T11:14:34;1.00;;;1.00;;
46282;SDS011;32017;43.700;11.820;2023-04-23T11:16:54;0.95;;;0.95;;
46282;SDS011;32017;43.700;11.820;2023-04-23T11:19:14;1.67;;;1.00;;
46282;SDS011;32017;43.700;11.820;2023-04-23T11:24:20;1.45;;;1.45;;
46282;SDS011;32017;43.700;11.820;2023-04-23T11:26:41;0.93;;;0.90;;
46282;SDS011;32017;43.700;11.820;2023-04-23T11:29:02;12.85;;;1.00;;
46282;SDS011;32017;43.700;11.820;2023-04-23T11:31:22;0.90;;;0.90;;
46282;SDS011;32017;43.700;11.820;2023-04-23T11:33:43;0.93;;;0.93;;
46282;SDS011;32017;43.700;11.820;2023-04-23T11:36:03;0.90;;;0.90;;
46282;SDS011;32017;43.700;11.820;2023-04-23T11:38:29;1.38;;;1.38;;
46282;SDS011;32017;43.700;11.820;2023-04-23T11:40:51;0.80;;;0.80;;
46282;SDS011;32017;43.700;11.820;2023-04-23T11:43:11;0.90;;;0.90;;
46282;SDS011;32017;43.700;11.820;2023-04-23T11:45:38;1.38;;;1.17;;
46282;SDS011;32017;43.700;11.820;2023-04-23T11:47:59;0.90;;;0.90;;
46282;SDS011;32017;43.700;11.820;2023-04-23T11:50:20;1.20;;;0.95;;
46282;SDS011;32017;43.700;11.820;2023-04-23T11:52:42;0.90;;;0.90;;
46282;SDS011;32017;43.700;11.820;2023-04-23T11:55:04;1.85;;;1.00;;
46282;SDS011;32017;43.700;11.820;2023-04-23T11:57:25;0.80;;;0.80;;
46282;SDS011;32017;43.700;11.820;2023-04-23T11:59:46;0.88;;;0.70;;
46282;SDS011;32017;43.700;11.820;2023-04-23T12:02:06;4.78;;;1.00;;
46282;SDS011;32017;43.700;11.820;2023-04-23T12:04:28;1.10;;;1.10;;
46282;SDS011;32017;43.700;11.820;2023-04-23T12:06:49;0.80;;;0.80;;
46282;SDS011;32017;43.700;11.820;2023-04-23T12:09:10;0.80;;;0.80;;
46282;SDS011;32017;43.700;11.820;2023-04-23T12:11:30;0.80;;;0.80;;
46282;SDS011;32017;43.700;11.820;2023-04-23T12:13:51;0.80;;;0.80;;
46282;SDS011;32017;43.700;11.820;2023-04-23T12:16:12;0.80;;;0.80;;
46282;SDS011;32017;43.700;11.820;2023-04-23T12:18:33;0.80;;;0.80;;
46282;SDS011;32017;43.700;11.820;2023-04-23T12:21:03;0.80;;;0.80;;
46282;SDS011;32017;43.700;11.820;2023-04-23T12:23:27;1.30;;;1.20;;
46282;SDS011;32017;43.700;11.820;2023-04-23T12:25:47;1.52;;;1.00;;
46282;SDS011;32017;43.700;11.820;2023-04-23T12:28:08;0.80;;;0.80;;
46282;SDS011;32017;43.700;11.820;2023-04-23T12:30:28;0.80;;;0.80;;
46282;SDS011;32017;43.700;11.820;2023-04-23T12:32:49;1.08;;;1.05;;
46282;SDS011;32017;43.700;11.820;2023-04-23T12:35:09;0.90;;;0.90;;
46282;SDS011;32017;43.700;11.820;2023-04-23T12:37:34;2.17;;;0.95;;
46282;SDS011;32017;43.700;11.820;2023-04-23T12:39:55;0.90;;;0.90;;
46282;SDS011;32017;43.700;11.820;2023-04-23T12:42:17;0.90;;;0.90;;
46282;SDS011;32017;43.700;11.820;2023-04-23T12:44:37;0.98;;;0.80;;
46282;SDS011;32017;43.700;11.820;2023-04-23T12:46:58;1.17;;;0.98;;
46282;SDS011;32017;43.700;11.820;2023-04-23T12:49:21;0.80;;;0.80;;
46282;SDS011;32017;43.700;11.820;2023-04-23T12:51:41;2.95;;;0.90;;
46282;SDS011;32017;43.700;11.820;2023-04-23T12:54:02;0.90;;;0.90;;
46282;SDS011;32017;43.700;11.820;2023-04-23T12:56:22;0.82;;;0.82;;
46282;SDS011;32017;43.700;11.820;2023-04-23T12:58:43;1.48;;;0.80;;
46282;SDS011;32017;43.700;11.820;2023-04-23T13:01:03;0.80;;;0.80;;
46282;SDS011;32017;43.700;11.820;2023-04-23T13:03:23;0.90;;;0.90;;
46282;SDS011;32017;43.700;11.820;2023-04-23T13:05:44;0.80;;;0.80;;
46282;SDS011;32017;43.700;11.820;2023-04-23T13:08:06;0.80;;;0.80;;
46282;SDS011;32017;43.700;11.820;2023-04-23T13:10:26;0.80;;;0.80;;
46282;SDS011;32017;43.700;11.820;2023-04-23T13:12:48;0.80;;;0.80;;
46282;SDS011;32017;43.700;11.820;2023-04-23T13:15:09;0.80;;;0.80;;
46282;SDS011;32017;43.700;11.820;2023-04-23T13:17:30;0.80;;;0.80;;
46282;SDS011;32017;43.700;11.820;2023-04-23T13:19:52;1.25;;;0.80;;
46282;SDS011;32017;43.700;11.820;2023-04-23T13:22:12;0.90;;;0.90;;
46282;SDS011;32017;43.700;11.820;2023-04-23T13:24:32;0.80;;;0.80;;
46282;SDS011;32017;43.700;11.820;2023-04-23T13:26:52;1.00;;;1.00;;
46282;SDS011;32017;43.700;11.820;2023-04-23T13:29:12;2.20;;;1.10;;
46282;SDS011;32017;43.700;11.820;2023-04-23T13:31:33;1.45;;;0.77;;
46282;SDS011;32017;43.700;11.820;2023-04-23T13:33:54;0.80;;;0.80;;
46282;SDS011;32017;43.700;11.820;2023-04-23T13:36:14;1.17;;;0.80;;
46282;SDS011;32017;43.700;11.820;2023-04-23T13:38:34;0.80;;;0.80;;
46282;SDS011;32017;43.700;11.820;2023-04-23T13:40:55;2.60;;;0.70;;
46282;SDS011;32017;43.700;11.820;2023-04-23T13:43:15;0.80;;;0.80;;
46282;SDS011;32017;43.700;11.820;2023-04-23T13:45:36;0.80;;;0.80;;
46282;SDS011;32017;43.700;11.820;2023-04-23T13:47:56;0.80;;;0.80;;
46282;SDS011;32017;43.700;11.820;2023-04-23T13:50:16;1.02;;;0.80;;
46282;SDS011;32017;43.700;11.820;2023-04-23T13:52:37;2.88;;;0.90;;
46282;SDS011;32017;43.700;11.820;2023-04-23T13:54:57;1.00;;;1.00;;
46282;SDS011;32017;43.700;11.820;2023-04-23T13:57:20;2.03;;;1.00;;
46282;SDS011;32017;43.700;11.820;2023-04-23T13:59:42;0.80;;;0.80;;
46282;SDS011;32017;43.700;11.820;2023-04-23T14:02:02;0.73;;;0.73;;
46282;SDS011;32017;43.700;11.820;2023-04-23T14:04:23;0.80;;;0.80;;